sensor_id;sensor_type;location;lat;lon;timestamp;P1;durP1;ratioP1;P2;durP2;ratioP2
52530;SDS011;38441;52.894;6.040;2023-04-28T00:00:27;12.13;;;7.03;;
52530;SDS011;38441;52.894;6.040;2023-04-28T00:02:53;11.10;;;7.00;;
52530;SDS011;38441;52.894;6.040;2023-04-28T00:05:19;9.43;;;6.70;;
52530;SDS011;38441;52.894;6.040;2023-04-28T00:07:47;10.63;;;6.78;;
52530;SDS011;38441;52.894;6.040;2023-04-28T00:10:13;13.43;;;7.07;;
52530;SDS011;38441;52.894;6.040;2023-04-28T00:12:39;11.85;;;7.53;;
52530;SDS011;38441;52.894;6.040;2023-04-28T00:15:06;11.45;;;6.97;;
52530;SDS011;38441;52.894;6.040;2023-04-28T00:17:32;10.90;;;7.40;;
52530;SDS011;38441;52.894;6.040;2023-04-28T00:19:58;13.07;;;7.40;;
52530;SDS011;38441;52.894;6.040;2023-04-28T00:22:24;13.05;;;6.65;;
52530;SDS011;38441;52.894;6.040;2023-04-28T00:24:50;10.40;;;6.78;;
52530;SDS011;38441;52.894;6.040;2023-04-28T00:27:16;11.20;;;7.93;;
52530;SDS011;38441;52.894;6.040;2023-04-28T00:29:42;14.15;;;7.55;;
52530;SDS011;38441;52.894;6.040;2023-04-28T00:32:08;12.63;;;7.70;;
52530;SDS011;38441;52.894;6.040;2023-04-28T00:34:34;12.35;;;7.57;;
52530;SDS011;38441;52.894;6.040;2023-04-28T00:37:03;11.25;;;7.53;;
52530;SDS011;38441;52.894;6.040;2023-04-28T00:39:29;11.23;;;7.20;;
52530;SDS011;38441;52.894;6.040;2023-04-28T00:41:55;13.20;;;7.20;;
52530;SDS011;38441;52.894;6.040;2023-04-28T00:44:21;12.93;;;6.97;;
52530;SDS011;38441;52.894;6.040;2023-04-28T00:46:47;12.88;;;7.80;;
52530;SDS011;38441;52.894;6.040;2023-04-28T00:49:14;11.65;;;7.15;;
52530;SDS011;38441;52.894;6.040;2023-04-28T00:51:40;11.25;;;7.40;;
52530;SDS011;38441;52.894;6.040;2023-04-28T00:54:06;16.00;;;8.27;;
52530;SDS011;38441;52.894;6.040;2023-04-28T00:56:32;10.20;;;6.90;;
52530;SDS011;38441;52.894;6.040;2023-04-28T00:58:58;12.63;;;7.30;;
52530;SDS011;38441;52.894;6.040;2023-04-28T01:01:24;12.45;;;7.65;;
52530;SDS011;38441;52.894;6.040;2023-04-28T01:03:51;10.35;;;7.05;;
52530;SDS011;38441;52.894;6.040;2023-04-28T01:06:17;12.63;;;7.30;;
52530;SDS011;38441;52.894;6.040;2023-04-28T01:08:46;10.88;;;8.30;;
52530;SDS011;38441;52.894;6.040;2023-04-28T01:11:13;11.80;;;6.72;;
52530;SDS011;38441;52.894;6.040;2023-04-28T01:13:39;12.45;;;7.50;;
52530;SDS011;38441;52.894;6.040;2023-04-28T01:16:05;10.13;;;7.25;;
52530;SDS011;38441;52.894;6.040;2023-04-28T01:18:31;11.13;;;7.43;;
52530;SDS011;38441;52.894;6.040;2023-04-28T01:20:58;12.63;;;7.45;;
52530;SDS011;38441;52.894;6.040;2023-04-28T01:23:24;13.05;;;7.22;;
52530;SDS011;38441;52.894;6.040;2023-04-28T01:25:51;13.25;;;6.88;;
52530;SDS011;38441;52.894;6.040;2023-04-28T01:28:17;14.63;;;7.55;;
52530;SDS011;38441;52.894;6.040;2023-04-28T01:30:43;10.25;;;6.75;;
52530;SDS011;38441;52.894;6.040;2023-04-28T01:33:09;13.77;;;6.70;;
52530;SDS011;38441;52.894;6.040;2023-04-28T01:35:35;12.13;;;6.88;;
52530;SDS011;38441;52.894;6.040;2023-04-28T01:38:01;10.45;;;6.95;;
52530;SDS011;38441;52.894;6.040;2023-04-28T01:40:27;10.00;;;6.53;;
52530;SDS011;38441;52.894;6.040;2023-04-28T01:42:53;10.57;;;6.22;;
52530;SDS011;38441;52.894;6.040;2023-04-28T01:45:19;10.30;;;6.53;;
52530;SDS011;38441;52.894;6.040;2023-04-28T01:47:45;10.98;;;6.47;;
52530;SDS011;38441;52.894;6.040;2023-04-28T01:50:11;12.95;;;7.00;;
52530;SDS011;38441;52.894;6.040;2023-04-28T01:52:37;10.60;;;6.65;;
52530;SDS011;38441;52.894;6.040;2023-04-28T01:55:03;10.30;;;7.00;;
52530;SDS011;38441;52.894;6.040;2023-04-28T01:57:29;11.32;;;7.13;;
52530;SDS011;38441;52.894;6.040;2023-04-28T01:59:55;11.35;;;6.75;;
52530;SDS011;38441;52.894;6.040;2023-04-28T02:02:23;11.68;;;6.55;;
52530;SDS011;38441;52.894;6.040;2023-04-28T02:04:49;11.80;;;7.15;;
52530;SDS011;38441;52.894;6.040;2023-04-28T02:07:15;9.15;;;6.75;;
52530;SDS011;38441;52.894;6.040;2023-04-28T02:09:41;11.82;;;7.10;;
52530;SDS011;38441;52.894;6.040;2023-04-28T02:12:07;9.80;;;6.68;;
52530;SDS011;38441;52.894;6.040;2023-04-28T02:14:33;11.18;;;6.60;;
52530;SDS011;38441;52.894;6.040;2023-04-28T02:16:59;12.15;;;6.82;;
52530;SDS011;38441;52.894;6.040;2023-04-28T02:19:27;11.27;;;6.85;;
52530;SDS011;38441;52.894;6.040;2023-04-28T02:21:52;9.57;;;6.65;;
52530;SDS011;38441;52.894;6.040;2023-04-28T02:24:19;13.75;;;7.10;;
52530;SDS011;38441;52.894;6.040;2023-04-28T02:26:45;12.07;;;6.82;;
52530;SDS011;38441;52.894;6.040;2023-04-28T02:29:11;9.60;;;6.57;;
52530;SDS011;38441;52.894;6.040;2023-04-28T02:31:37;10.38;;;6.50;;
52530;SDS011;38441;52.894;6.040;2023-04-28T02:34:03;9.48;;;6.38;;
52530;SDS011;38441;52.894;6.040;2023-04-28T02:36:29;10.20;;;6.40;;
52530;SDS011;38441;52.894;6.040;2023-04-28T02:38:56;11.18;;;6.85;;
52530;SDS011;38441;52.894;6.040;2023-04-28T02:41:22;11.48;;;6.45;;
52530;SDS011;38441;52.894;6.040;2023-04-28T02:43:48;10.88;;;7.18;;
52530;SDS011;38441;52.894;6.040;2023-04-28T02:46:14;11.57;;;7.20;;
52530;SDS011;38441;52.894;6.040;2023-04-28T02:48:40;11.98;;;7.00;;
52530;SDS011;38441;52.894;6.040;2023-04-28T02:51:06;10.77;;;7.10;;
52530;SDS011;38441;52.894;6.040;2023-04-28T02:53:32;13.60;;;7.15;;
52530;SDS011;38441;52.894;6.040;2023-04-28T02:55:58;11.55;;;7.32;;
52530;SDS011;38441;52.894;6.040;2023-04-28T02:58:26;11.38;;;6.75;;
52530;SDS011;38441;52.894;6.040;2023-04-28T03:00:52;10.80;;;7.15;;
52530;SDS011;38441;52.894;6.040;2023-04-28T03:03:18;11.50;;;7.50;;
52530;SDS011;38441;52.894;6.040;2023-04-28T03:05:44;13.85;;;8.30;;
52530;SDS011;38441;52.894;6.040;2023-04-28T03:08:10;12.05;;;7.68;;
52530;SDS011;38441;52.894;6.040;2023-04-28T03:10:36;10.70;;;7.20;;
52530;SDS011;38441;52.894;6.040;2023-04-28T03:13:02;11.05;;;7.22;;
52530;SDS011;38441;52.894;6.040;2023-04-28T03:15:28;13.85;;;8.10;;
52530;SDS011;38441;52.894;6.040;2023-04-28T03:17:54;13.27;;;8.20;;
52530;SDS011;38441;52.894;6.040;2023-04-28T03:20:20;10.27;;;7.13;;
52530;SDS011;38441;52.894;6.040;2023-04-28T03:22:46;15.80;;;8.13;;
52530;SDS011;38441;52.894;6.040;2023-04-28T03:25:12;11.25;;;7.53;;
52530;SDS011;38441;52.894;6.040;2023-04-28T03:27:38;13.63;;;8.00;;
52530;SDS011;38441;52.894;6.040;2023-04-28T03:30:04;17.50;;;8.05;;
52530;SDS011;38441;52.894;6.040;2023-04-28T03:32:30;13.93;;;8.70;;
52530;SDS011;38441;52.894;6.040;2023-04-28T03:34:56;14.75;;;8.10;;
52530;SDS011;38441;52.894;6.040;2023-04-28T03:37:22;11.70;;;7.57;;
52530;SDS011;38441;52.894;6.040;2023-04-28T03:39:48;11.32;;;7.78;;
52530;SDS011;38441;52.894;6.040;2023-04-28T03:42:14;13.68;;;8.32;;
52530;SDS011;38441;52.894;6.040;2023-04-28T03:44:40;13.75;;;8.02;;
52530;SDS011;38441;52.894;6.040;2023-04-28T03:47:06;12.35;;;7.82;;
52530;SDS011;38441;52.894;6.040;2023-04-28T03:49:32;13.82;;;8.00;;
52530;SDS011;38441;52.894;6.040;2023-04-28T03:51:58;14.05;;;7.80;;
52530;SDS011;38441;52.894;6.040;2023-04-28T03:54:24;13.35;;;8.25;;
52530;SDS011;38441;52.894;6.040;2023-04-28T03:56:50;16.63;;;8.32;;
52530;SDS011;38441;52.894;6.040;2023-04-28T03:59:17;11.80;;;8.15;;
52530;SDS011;38441;52.894;6.040;2023-04-28T04:01:43;13.98;;;8.32;;
52530;SDS011;38441;52.894;6.040;2023-04-28T04:04:09;13.25;;;8.60;;
52530;SDS011;38441;52.894;6.040;2023-04-28T04:06:35;13.27;;;7.97;;
52530;SDS011;38441;52.894;6.040;2023-04-28T04:09:01;12.65;;;8.95;;
52530;SDS011;38441;52.894;6.040;2023-04-28T04:11:27;11.15;;;7.57;;
52530;SDS011;38441;52.894;6.040;2023-04-28T04:13:53;14.10;;;8.90;;
52530;SDS011;38441;52.894;6.040;2023-04-28T04:16:19;12.95;;;8.23;;
52530;SDS011;38441;52.894;6.040;2023-04-28T04:18:46;12.43;;;7.70;;
52530;SDS011;38441;52.894;6.040;2023-04-28T04:21:12;14.18;;;8.18;;
52530;SDS011;38441;52.894;6.040;2023-04-28T04:23:38;12.70;;;8.52;;
52530;SDS011;38441;52.894;6.040;2023-04-28T04:26:04;14.68;;;8.65;;
52530;SDS011;38441;52.894;6.040;2023-04-28T04:28:30;14.55;;;8.75;;
52530;SDS011;38441;52.894;6.040;2023-04-28T04:30:56;14.20;;;8.75;;
52530;SDS011;38441;52.894;6.040;2023-04-28T04:33:22;12.98;;;7.95;;
52530;SDS011;38441;52.894;6.040;2023-04-28T04:35:51;14.75;;;8.90;;
52530;SDS011;38441;52.894;6.040;2023-04-28T04:38:17;14.25;;;8.52;;
52530;SDS011;38441;52.894;6.040;2023-04-28T04:40:43;15.05;;;8.95;;
52530;SDS011;38441;52.894;6.040;2023-04-28T04:43:09;14.65;;;8.77;;
52530;SDS011;38441;52.894;6.040;2023-04-28T04:45:35;13.38;;;8.57;;
52530;SDS011;38441;52.894;6.040;2023-04-28T04:48:02;17.33;;;8.77;;
52530;SDS011;38441;52.894;6.040;2023-04-28T04:50:28;14.15;;;8.35;;
52530;SDS011;38441;52.894;6.040;2023-04-28T04:52:54;12.57;;;8.45;;
52530;SDS011;38441;52.894;6.040;2023-04-28T04:55:21;15.57;;;9.15;;
52530;SDS011;38441;52.894;6.040;2023-04-28T04:57:47;13.30;;;8.57;;
52530;SDS011;38441;52.894;6.040;2023-04-28T05:00:13;13.13;;;8.43;;
52530;SDS011;38441;52.894;6.040;2023-04-28T05:02:41;13.40;;;8.23;;
52530;SDS011;38441;52.894;6.040;2023-04-28T05:05:07;13.65;;;8.80;;
52530;SDS011;38441;52.894;6.040;2023-04-28T05:07:33;15.05;;;9.20;;
52530;SDS011;38441;52.894;6.040;2023-04-28T05:09:59;14.90;;;9.43;;
52530;SDS011;38441;52.894;6.040;2023-04-28T05:12:25;15.90;;;9.85;;
52530;SDS011;38441;52.894;6.040;2023-04-28T05:14:51;12.82;;;9.07;;
52530;SDS011;38441;52.894;6.040;2023-04-28T05:17:17;17.98;;;9.40;;
52530;SDS011;38441;52.894;6.040;2023-04-28T05:19:43;14.55;;;8.63;;
52530;SDS011;38441;52.894;6.040;2023-04-28T05:22:09;15.45;;;9.10;;
52530;SDS011;38441;52.894;6.040;2023-04-28T05:24:36;14.40;;;9.35;;
52530;SDS011;38441;52.894;6.040;2023-04-28T05:27:02;16.70;;;9.00;;
52530;SDS011;38441;52.894;6.040;2023-04-28T05:29:28;14.57;;;8.65;;
52530;SDS011;38441;52.894;6.040;2023-04-28T05:31:54;16.35;;;8.80;;
52530;SDS011;38441;52.894;6.040;2023-04-28T05:34:20;13.55;;;8.55;;
52530;SDS011;38441;52.894;6.040;2023-04-28T05:36:46;13.63;;;8.95;;
52530;SDS011;38441;52.894;6.040;2023-04-28T05:39:12;16.08;;;8.27;;
52530;SDS011;38441;52.894;6.040;2023-04-28T05:41:38;14.98;;;9.38;;
52530;SDS011;38441;52.894;6.040;2023-04-28T05:44:04;12.70;;;8.50;;
52530;SDS011;38441;52.894;6.040;2023-04-28T05:46:30;13.70;;;8.75;;
52530;SDS011;38441;52.894;6.040;2023-04-28T05:48:56;15.55;;;9.35;;
52530;SDS011;38441;52.894;6.040;2023-04-28T05:51:22;16.25;;;9.43;;
52530;SDS011;38441;52.894;6.040;2023-04-28T05:53:48;13.43;;;9.32;;
52530;SDS011;38441;52.894;6.040;2023-04-28T05:56:15;14.32;;;9.32;;
52530;SDS011;38441;52.894;6.040;2023-04-28T05:58:41;14.55;;;8.95;;
52530;SDS011;38441;52.894;6.040;2023-04-28T06:01:11;12.82;;;8.75;;
52530;SDS011;38441;52.894;6.040;2023-04-28T06:03:37;14.05;;;7.90;;
52530;SDS011;38441;52.894;6.040;2023-04-28T06:06:05;14.35;;;8.60;;
52530;SDS011;38441;52.894;6.040;2023-04-28T06:08:32;15.32;;;8.82;;
52530;SDS011;38441;52.894;6.040;2023-04-28T06:10:58;13.52;;;9.48;;
52530;SDS011;38441;52.894;6.040;2023-04-28T06:13:24;14.00;;;8.40;;
52530;SDS011;38441;52.894;6.040;2023-04-28T06:15:50;16.17;;;9.02;;
52530;SDS011;38441;52.894;6.040;2023-04-28T06:18:16;15.23;;;9.43;;
52530;SDS011;38441;52.894;6.040;2023-04-28T06:20:42;14.57;;;9.68;;
52530;SDS011;38441;52.894;6.040;2023-04-28T06:23:08;14.82;;;8.15;;
52530;SDS011;38441;52.894;6.040;2023-04-28T06:25:34;14.90;;;9.00;;
52530;SDS011;38441;52.894;6.040;2023-04-28T06:28:01;13.82;;;8.80;;
52530;SDS011;38441;52.894;6.040;2023-04-28T06:30:27;15.95;;;9.35;;
52530;SDS011;38441;52.894;6.040;2023-04-28T06:32:53;13.70;;;8.75;;
52530;SDS011;38441;52.894;6.040;2023-04-28T06:35:21;13.48;;;9.30;;
52530;SDS011;38441;52.894;6.040;2023-04-28T06:37:47;13.50;;;8.60;;
52530;SDS011;38441;52.894;6.040;2023-04-28T06:40:13;15.05;;;8.95;;
52530;SDS011;38441;52.894;6.040;2023-04-28T06:42:39;15.00;;;7.95;;
52530;SDS011;38441;52.894;6.040;2023-04-28T06:45:05;13.73;;;8.73;;
52530;SDS011;38441;52.894;6.040;2023-04-28T06:47:31;15.52;;;8.95;;
52530;SDS011;38441;52.894;6.040;2023-04-28T06:49:58;17.15;;;8.93;;
52530;SDS011;38441;52.894;6.040;2023-04-28T06:52:25;14.90;;;8.20;;
52530;SDS011;38441;52.894;6.040;2023-04-28T06:54:53;15.55;;;8.98;;
52530;SDS011;38441;52.894;6.040;2023-04-28T06:57:19;13.88;;;8.60;;
52530;SDS011;38441;52.894;6.040;2023-04-28T06:59:45;12.32;;;7.70;;
52530;SDS011;38441;52.894;6.040;2023-04-28T07:02:11;12.65;;;7.93;;
52530;SDS011;38441;52.894;6.040;2023-04-28T07:04:37;14.40;;;8.98;;
52530;SDS011;38441;52.894;6.040;2023-04-28T07:07:03;13.70;;;8.35;;
52530;SDS011;38441;52.894;6.040;2023-04-28T07:09:34;14.90;;;8.10;;
52530;SDS011;38441;52.894;6.040;2023-04-28T07:12:00;13.80;;;8.35;;
52530;SDS011;38441;52.894;6.040;2023-04-28T07:14:26;11.93;;;8.40;;
52530;SDS011;38441;52.894;6.040;2023-04-28T07:16:52;15.82;;;7.93;;
52530;SDS011;38441;52.894;6.040;2023-04-28T07:19:18;13.50;;;8.73;;
52530;SDS011;38441;52.894;6.040;2023-04-28T07:21:44;13.20;;;7.75;;
52530;SDS011;38441;52.894;6.040;2023-04-28T07:24:10;13.52;;;8.30;;
52530;SDS011;38441;52.894;6.040;2023-04-28T07:26:36;13.63;;;8.05;;
52530;SDS011;38441;52.894;6.040;2023-04-28T07:29:02;12.18;;;8.80;;
52530;SDS011;38441;52.894;6.040;2023-04-28T07:31:28;11.32;;;8.07;;
52530;SDS011;38441;52.894;6.040;2023-04-28T07:33:54;12.95;;;7.78;;
52530;SDS011;38441;52.894;6.040;2023-04-28T07:36:20;12.07;;;8.20;;
52530;SDS011;38441;52.894;6.040;2023-04-28T07:38:46;11.85;;;7.43;;
52530;SDS011;38441;52.894;6.040;2023-04-28T07:41:12;11.90;;;7.65;;
52530;SDS011;38441;52.894;6.040;2023-04-28T07:43:39;16.90;;;9.32;;
52530;SDS011;38441;52.894;6.040;2023-04-28T07:46:08;11.35;;;8.00;;
52530;SDS011;38441;52.894;6.040;2023-04-28T07:48:34;12.52;;;8.60;;
52530;SDS011;38441;52.894;6.040;2023-04-28T07:51:00;13.57;;;8.68;;
52530;SDS011;38441;52.894;6.040;2023-04-28T07:53:26;11.65;;;8.18;;
52530;SDS011;38441;52.894;6.040;2023-04-28T07:55:53;13.07;;;8.43;;
52530;SDS011;38441;52.894;6.040;2023-04-28T07:58:18;13.02;;;7.47;;
52530;SDS011;38441;52.894;6.040;2023-04-28T08:00:45;12.32;;;7.95;;
52530;SDS011;38441;52.894;6.040;2023-04-28T08:03:11;13.40;;;8.10;;
52530;SDS011;38441;52.894;6.040;2023-04-28T08:05:37;11.93;;;8.70;;
52530;SDS011;38441;52.894;6.040;2023-04-28T08:08:03;13.20;;;8.52;;
52530;SDS011;38441;52.894;6.040;2023-04-28T08:10:29;12.60;;;8.20;;
52530;SDS011;38441;52.894;6.040;2023-04-28T08:12:56;14.35;;;9.10;;
52530;SDS011;38441;52.894;6.040;2023-04-28T08:15:22;15.00;;;8.43;;
52530;SDS011;38441;52.894;6.040;2023-04-28T08:17:47;12.27;;;8.30;;
52530;SDS011;38441;52.894;6.040;2023-04-28T08:20:13;11.93;;;8.65;;
52530;SDS011;38441;52.894;6.040;2023-04-28T08:22:39;11.25;;;8.00;;
52530;SDS011;38441;52.894;6.040;2023-04-28T08:25:06;14.13;;;8.05;;
52530;SDS011;38441;52.894;6.040;2023-04-28T08:27:32;15.07;;;8.85;;
52530;SDS011;38441;52.894;6.040;2023-04-28T08:29:58;12.55;;;8.07;;
52530;SDS011;38441;52.894;6.040;2023-04-28T08:32:24;11.82;;;8.30;;
52530;SDS011;38441;52.894;6.040;2023-04-28T08:34:50;14.85;;;8.85;;
52530;SDS011;38441;52.894;6.040;2023-04-28T08:37:15;13.98;;;8.55;;
52530;SDS011;38441;52.894;6.040;2023-04-28T08:39:41;15.75;;;8.57;;
52530;SDS011;38441;52.894;6.040;2023-04-28T08:42:07;13.80;;;8.43;;
52530;SDS011;38441;52.894;6.040;2023-04-28T08:44:36;12.05;;;8.93;;
52530;SDS011;38441;52.894;6.040;2023-04-28T08:47:04;15.20;;;8.80;;
52530;SDS011;38441;52.894;6.040;2023-04-28T08:49:39;12.30;;;8.93;;
52530;SDS011;38441;52.894;6.040;2023-04-28T08:52:09;11.18;;;7.80;;
52530;SDS011;38441;52.894;6.040;2023-04-28T08:54:37;10.38;;;7.63;;
52530;SDS011;38441;52.894;6.040;2023-04-28T08:57:06;12.98;;;8.63;;
52530;SDS011;38441;52.894;6.040;2023-04-28T08:59:33;12.85;;;8.93;;
52530;SDS011;38441;52.894;6.040;2023-04-28T09:01:59;12.10;;;8.40;;
52530;SDS011;38441;52.894;6.040;2023-04-28T09:04:25;11.50;;;7.97;;
52530;SDS011;38441;52.894;6.040;2023-04-28T09:06:51;12.43;;;8.30;;
52530;SDS011;38441;52.894;6.040;2023-04-28T09:09:17;11.25;;;8.73;;
52530;SDS011;38441;52.894;6.040;2023-04-28T09:11:50;13.48;;;8.13;;
52530;SDS011;38441;52.894;6.040;2023-04-28T09:14:17;10.85;;;7.82;;
52530;SDS011;38441;52.894;6.040;2023-04-28T09:16:43;14.65;;;8.55;;
52530;SDS011;38441;52.894;6.040;2023-04-28T09:19:09;11.38;;;8.57;;
52530;SDS011;38441;52.894;6.040;2023-04-28T09:21:51;11.30;;;8.73;;
52530;SDS011;38441;52.894;6.040;2023-04-28T09:27:13;12.05;;;8.75;;
52530;SDS011;38441;52.894;6.040;2023-04-28T09:29:50;12.77;;;8.68;;
52530;SDS011;38441;52.894;6.040;2023-04-28T09:32:17;12.60;;;8.90;;
52530;SDS011;38441;52.894;6.040;2023-04-28T09:34:52;12.43;;;8.70;;
52530;SDS011;38441;52.894;6.040;2023-04-28T09:37:21;13.77;;;9.38;;
52530;SDS011;38441;52.894;6.040;2023-04-28T09:39:49;13.18;;;8.85;;
52530;SDS011;38441;52.894;6.040;2023-04-28T09:42:32;12.75;;;9.00;;
52530;SDS011;38441;52.894;6.040;2023-04-28T09:45:08;15.10;;;9.77;;
52530;SDS011;38441;52.894;6.040;2023-04-28T09:47:39;11.68;;;8.55;;
52530;SDS011;38441;52.894;6.040;2023-04-28T09:50:10;13.05;;;8.60;;
52530;SDS011;38441;52.894;6.040;2023-04-28T09:52:39;12.70;;;8.52;;
52530;SDS011;38441;52.894;6.040;2023-04-28T09:55:06;10.90;;;8.48;;
52530;SDS011;38441;52.894;6.040;2023-04-28T09:57:33;15.18;;;8.90;;
52530;SDS011;38441;52.894;6.040;2023-04-28T10:00:00;10.70;;;8.13;;
52530;SDS011;38441;52.894;6.040;2023-04-28T10:02:29;13.88;;;8.32;;
52530;SDS011;38441;52.894;6.040;2023-04-28T10:04:56;12.00;;;7.80;;
52530;SDS011;38441;52.894;6.040;2023-04-28T10:07:22;12.45;;;8.23;;
52530;SDS011;38441;52.894;6.040;2023-04-28T10:09:51;11.98;;;8.32;;
52530;SDS011;38441;52.894;6.040;2023-04-28T10:12:20;13.35;;;7.85;;
52530;SDS011;38441;52.894;6.040;2023-04-28T10:14:48;10.70;;;8.57;;
52530;SDS011;38441;52.894;6.040;2023-04-28T10:17:18;12.25;;;8.35;;
52530;SDS011;38441;52.894;6.040;2023-04-28T10:19:44;12.43;;;7.93;;
52530;SDS011;38441;52.894;6.040;2023-04-28T10:27:46;13.55;;;7.97;;
52530;SDS011;38441;52.894;6.040;2023-04-28T10:30:16;15.18;;;8.38;;
52530;SDS011;38441;52.894;6.040;2023-04-28T10:32:43;13.13;;;8.38;;
52530;SDS011;38441;52.894;6.040;2023-04-28T10:40:30;11.65;;;7.82;;
52530;SDS011;38441;52.894;6.040;2023-04-28T10:42:59;10.10;;;7.82;;
52530;SDS011;38441;52.894;6.040;2023-04-28T10:45:54;9.90;;;7.90;;
52530;SDS011;38441;52.894;6.040;2023-04-28T10:48:17;10.90;;;7.90;;
52530;SDS011;38441;52.894;6.040;2023-04-28T10:54:14;9.85;;;7.68;;
52530;SDS011;38441;52.894;6.040;2023-04-28T10:56:15;10.88;;;8.38;;
52530;SDS011;38441;52.894;6.040;2023-04-28T10:58:43;10.50;;;7.03;;
52530;SDS011;38441;52.894;6.040;2023-04-28T11:06:39;10.77;;;7.30;;
52530;SDS011;38441;52.894;6.040;2023-04-28T11:19:23;10.80;;;7.45;;
52530;SDS011;38441;52.894;6.040;2023-04-28T11:21:53;10.18;;;7.55;;
52530;SDS011;38441;52.894;6.040;2023-04-28T11:24:20;13.38;;;8.07;;
52530;SDS011;38441;52.894;6.040;2023-04-28T11:26:50;10.75;;;7.70;;
52530;SDS011;38441;52.894;6.040;2023-04-28T11:29:16;11.77;;;8.35;;
52530;SDS011;38441;52.894;6.040;2023-04-28T11:31:48;10.77;;;8.43;;
52530;SDS011;38441;52.894;6.040;2023-04-28T11:34:18;10.30;;;8.38;;
52530;SDS011;38441;52.894;6.040;2023-04-28T11:36:45;12.68;;;9.35;;
52530;SDS011;38441;52.894;6.040;2023-04-28T11:39:11;13.57;;;9.13;;
52530;SDS011;38441;52.894;6.040;2023-04-28T11:41:38;12.65;;;9.52;;
52530;SDS011;38441;52.894;6.040;2023-04-28T11:44:13;14.40;;;9.43;;
52530;SDS011;38441;52.894;6.040;2023-04-28T11:46:46;14.82;;;9.68;;
52530;SDS011;38441;52.894;6.040;2023-04-28T11:49:16;13.98;;;9.05;;
52530;SDS011;38441;52.894;6.040;2023-04-28T11:51:42;11.70;;;10.00;;
52530;SDS011;38441;52.894;6.040;2023-04-28T11:54:11;16.38;;;11.10;;
52530;SDS011;38441;52.894;6.040;2023-04-28T11:56:38;13.82;;;10.02;;
52530;SDS011;38441;52.894;6.040;2023-04-28T11:59:09;13.57;;;10.52;;
52530;SDS011;38441;52.894;6.040;2023-04-28T12:01:55;11.43;;;9.55;;
52530;SDS011;38441;52.894;6.040;2023-04-28T12:06:59;12.25;;;10.30;;
52530;SDS011;38441;52.894;6.040;2023-04-28T12:09:24;13.43;;;10.55;;
52530;SDS011;38441;52.894;6.040;2023-04-28T12:14:19;13.95;;;11.32;;
52530;SDS011;38441;52.894;6.040;2023-04-28T12:16:45;15.25;;;11.15;;
52530;SDS011;38441;52.894;6.040;2023-04-28T12:19:12;14.35;;;10.68;;
52530;SDS011;38441;52.894;6.040;2023-04-28T12:21:39;16.77;;;12.43;;
52530;SDS011;38441;52.894;6.040;2023-04-28T12:24:12;18.02;;;12.57;;
52530;SDS011;38441;52.894;6.040;2023-04-28T12:26:41;15.85;;;12.35;;
52530;SDS011;38441;52.894;6.040;2023-04-28T12:29:07;15.43;;;11.63;;
52530;SDS011;38441;52.894;6.040;2023-04-28T12:31:46;16.92;;;12.52;;
52530;SDS011;38441;52.894;6.040;2023-04-28T12:34:17;18.33;;;14.00;;
52530;SDS011;38441;52.894;6.040;2023-04-28T12:36:42;19.63;;;15.60;;
52530;SDS011;38441;52.894;6.040;2023-04-28T12:39:13;23.88;;;18.65;;
52530;SDS011;38441;52.894;6.040;2023-04-28T12:41:44;25.13;;;19.58;;
52530;SDS011;38441;52.894;6.040;2023-04-28T12:44:10;28.63;;;20.45;;
52530;SDS011;38441;52.894;6.040;2023-04-28T12:46:35;28.63;;;21.65;;
52530;SDS011;38441;52.894;6.040;2023-04-28T12:49:01;29.60;;;22.95;;
52530;SDS011;38441;52.894;6.040;2023-04-28T12:51:27;29.00;;;24.25;;
52530;SDS011;38441;52.894;6.040;2023-04-28T12:53:53;31.40;;;24.67;;
52530;SDS011;38441;52.894;6.040;2023-04-28T12:56:19;31.40;;;24.38;;
52530;SDS011;38441;52.894;6.040;2023-04-28T12:58:45;28.70;;;25.38;;
52530;SDS011;38441;52.894;6.040;2023-04-28T13:01:10;30.40;;;26.23;;
52530;SDS011;38441;52.894;6.040;2023-04-28T13:03:36;29.88;;;25.65;;
52530;SDS011;38441;52.894;6.040;2023-04-28T13:06:01;29.40;;;25.38;;
52530;SDS011;38441;52.894;6.040;2023-04-28T13:08:27;28.70;;;25.38;;
52530;SDS011;38441;52.894;6.040;2023-04-28T13:10:57;30.58;;;26.10;;
52530;SDS011;38441;52.894;6.040;2023-04-28T13:13:23;30.13;;;25.15;;
52530;SDS011;38441;52.894;6.040;2023-04-28T13:15:49;27.92;;;24.92;;
52530;SDS011;38441;52.894;6.040;2023-04-28T13:18:15;26.50;;;23.33;;
52530;SDS011;38441;52.894;6.040;2023-04-28T13:20:41;25.80;;;22.98;;
52530;SDS011;38441;52.894;6.040;2023-04-28T13:23:07;27.08;;;23.58;;
52530;SDS011;38441;52.894;6.040;2023-04-28T13:25:33;27.33;;;22.65;;
52530;SDS011;38441;52.894;6.040;2023-04-28T13:27:58;28.15;;;23.75;;
52530;SDS011;38441;52.894;6.040;2023-04-28T13:30:24;26.25;;;22.30;;
52530;SDS011;38441;52.894;6.040;2023-04-28T13:32:50;27.00;;;21.23;;
52530;SDS011;38441;52.894;6.040;2023-04-28T13:35:16;26.23;;;23.15;;
52530;SDS011;38441;52.894;6.040;2023-04-28T13:37:42;24.88;;;22.27;;
52530;SDS011;38441;52.894;6.040;2023-04-28T13:40:10;26.08;;;23.30;;
52530;SDS011;38441;52.894;6.040;2023-04-28T13:42:36;28.98;;;24.30;;
52530;SDS011;38441;52.894;6.040;2023-04-28T13:45:02;29.15;;;23.77;;
52530;SDS011;38441;52.894;6.040;2023-04-28T13:47:28;28.08;;;24.35;;
52530;SDS011;38441;52.894;6.040;2023-04-28T13:49:56;29.35;;;24.83;;
52530;SDS011;38441;52.894;6.040;2023-04-28T13:52:24;28.23;;;24.27;;
52530;SDS011;38441;52.894;6.040;2023-04-28T13:54:50;27.58;;;23.80;;
52530;SDS011;38441;52.894;6.040;2023-04-28T13:57:16;27.23;;;22.70;;
52530;SDS011;38441;52.894;6.040;2023-04-28T13:59:42;24.77;;;22.08;;
52530;SDS011;38441;52.894;6.040;2023-04-28T14:02:07;25.45;;;21.52;;
52530;SDS011;38441;52.894;6.040;2023-04-28T14:04:35;23.15;;;20.58;;
52530;SDS011;38441;52.894;6.040;2023-04-28T14:07:01;23.48;;;19.65;;
52530;SDS011;38441;52.894;6.040;2023-04-28T14:09:28;23.15;;;20.20;;
52530;SDS011;38441;52.894;6.040;2023-04-28T14:12:01;22.85;;;19.58;;
52530;SDS011;38441;52.894;6.040;2023-04-28T14:14:26;19.90;;;17.85;;
52530;SDS011;38441;52.894;6.040;2023-04-28T14:16:52;20.00;;;17.63;;
52530;SDS011;38441;52.894;6.040;2023-04-28T14:19:18;18.75;;;16.75;;
52530;SDS011;38441;52.894;6.040;2023-04-28T14:21:44;20.63;;;17.83;;
52530;SDS011;38441;52.894;6.040;2023-04-28T14:24:09;18.80;;;16.80;;
52530;SDS011;38441;52.894;6.040;2023-04-28T14:26:35;16.20;;;14.48;;
52530;SDS011;38441;52.894;6.040;2023-04-28T14:29:06;16.17;;;14.32;;
52530;SDS011;38441;52.894;6.040;2023-04-28T14:31:42;15.80;;;13.80;;
52530;SDS011;38441;52.894;6.040;2023-04-28T14:34:48;14.77;;;12.27;;
52530;SDS011;38441;52.894;6.040;2023-04-28T14:37:14;16.08;;;12.27;;
52530;SDS011;38441;52.894;6.040;2023-04-28T14:39:40;15.52;;;12.60;;
52530;SDS011;38441;52.894;6.040;2023-04-28T14:42:07;18.95;;;13.07;;
52530;SDS011;38441;52.894;6.040;2023-04-28T14:44:33;18.05;;;13.40;;
52530;SDS011;38441;52.894;6.040;2023-04-28T14:46:58;16.42;;;13.15;;
52530;SDS011;38441;52.894;6.040;2023-04-28T14:49:25;16.42;;;13.65;;
52530;SDS011;38441;52.894;6.040;2023-04-28T14:51:51;23.05;;;18.17;;
52530;SDS011;38441;52.894;6.040;2023-04-28T14:54:18;22.67;;;16.27;;
52530;SDS011;38441;52.894;6.040;2023-04-28T14:56:44;20.77;;;14.82;;
52530;SDS011;38441;52.894;6.040;2023-04-28T14:59:09;21.85;;;14.93;;
52530;SDS011;38441;52.894;6.040;2023-04-28T15:01:35;20.25;;;14.32;;
52530;SDS011;38441;52.894;6.040;2023-04-28T15:04:01;19.70;;;14.68;;
52530;SDS011;38441;52.894;6.040;2023-04-28T15:06:28;20.63;;;14.80;;